sensor_id;sensor_type;location;lat;lon;timestamp;P1;durP1;ratioP1;P2;durP2;ratioP2
20399;SDS011;10359;53.596;22.520;2023-07-22T00:03:51;3.07;;;2.20;;
20399;SDS011;10359;53.596;22.520;2023-07-22T00:10:24;2.70;;;2.20;;
20399;SDS011;10359;53.596;22.520;2023-07-22T00:17:15;3.90;;;2.30;;
20399;SDS011;10359;53.596;22.520;2023-07-22T00:24:07;3.20;;;2.37;;
20399;SDS011;10359;53.596;22.520;2023-07-22T00:30:53;3.23;;;2.33;;
20399;SDS011;10359;53.596;22.520;2023-07-22T00:37:05;3.90;;;2.67;;
20399;SDS011;10359;53.596;22.520;2023-07-22T00:53:20;4.00;;;2.33;;
20399;SDS011;10359;53.596;22.520;2023-07-22T01:03:55;3.70;;;2.80;;
20399;SDS011;10359;53.596;22.520;2023-07-22T01:13:31;3.17;;;2.73;;
20399;SDS011;10359;53.596;22.520;2023-07-22T01:48:28;3.37;;;2.87;;
20399;SDS011;10359;53.596;22.520;2023-07-22T02:04:54;3.10;;;2.80;;
20399;SDS011;10359;53.596;22.520;2023-07-22T02:11:38;3.27;;;2.67;;
20399;SDS011;10359;53.596;22.520;2023-07-22T02:18:28;4.07;;;3.40;;
20399;SDS011;10359;53.596;22.520;2023-07-22T02:25:32;3.87;;;2.80;;
20399;SDS011;10359;53.596;22.520;2023-07-22T02:32:11;3.77;;;2.93;;
20399;SDS011;10359;53.596;22.520;2023-07-22T02:38:51;3.07;;;2.77;;
20399;SDS011;10359;53.596;22.520;2023-07-22T02:45:40;3.13;;;2.57;;
20399;SDS011;10359;53.596;22.520;2023-07-22T02:52:19;4.10;;;3.30;;
20399;SDS011;10359;53.596;22.520;2023-07-22T02:59:16;5.07;;;3.30;;
20399;SDS011;10359;53.596;22.520;2023-07-22T03:05:46;4.30;;;3.03;;
20399;SDS011;10359;53.596;22.520;2023-07-22T03:12:26;3.27;;;2.87;;
20399;SDS011;10359;53.596;22.520;2023-07-22T03:19:11;4.07;;;2.40;;
20399;SDS011;10359;53.596;22.520;2023-07-22T03:25:57;4.90;;;3.10;;
20399;SDS011;10359;53.596;22.520;2023-07-22T03:32:37;4.33;;;2.67;;
20399;SDS011;10359;53.596;22.520;2023-07-22T03:46:30;2.80;;;2.50;;
20399;SDS011;10359;53.596;22.520;2023-07-22T03:53:17;3.07;;;2.70;;
20399;SDS011;10359;53.596;22.520;2023-07-22T03:59:56;4.60;;;2.97;;
20399;SDS011;10359;53.596;22.520;2023-07-22T04:06:24;2.93;;;2.70;;
20399;SDS011;10359;53.596;22.520;2023-07-22T04:13:10;5.03;;;2.97;;
20399;SDS011;10359;53.596;22.520;2023-07-22T04:19:52;4.30;;;3.23;;
20399;SDS011;10359;53.596;22.520;2023-07-22T04:26:31;6.27;;;3.13;;
20399;SDS011;10359;53.596;22.520;2023-07-22T04:33:17;6.47;;;4.00;;
20399;SDS011;10359;53.596;22.520;2023-07-22T04:39:59;5.83;;;5.27;;
20399;SDS011;10359;53.596;22.520;2023-07-22T04:46:43;4.80;;;4.20;;
20399;SDS011;10359;53.596;22.520;2023-07-22T04:57:26;6.23;;;5.30;;
20399;SDS011;10359;53.596;22.520;2023-07-22T05:00:22;8.67;;;5.00;;
20399;SDS011;10359;53.596;22.520;2023-07-22T05:15:09;9.00;;;5.53;;
20399;SDS011;10359;53.596;22.520;2023-07-22T05:21:49;6.67;;;5.80;;
20399;SDS011;10359;53.596;22.520;2023-07-22T05:28:30;6.43;;;5.83;;
20399;SDS011;10359;53.596;22.520;2023-07-22T05:39:22;10.13;;;8.60;;
20399;SDS011;10359;53.596;22.520;2023-07-22T05:45:44;8.43;;;7.60;;
20399;SDS011;10359;53.596;22.520;2023-07-22T05:52:30;8.43;;;7.53;;
20399;SDS011;10359;53.596;22.520;2023-07-22T05:59:11;11.07;;;8.73;;
20399;SDS011;10359;53.596;22.520;2023-07-22T06:05:40;11.80;;;9.63;;
20399;SDS011;10359;53.596;22.520;2023-07-22T06:12:26;12.40;;;10.60;;
20399;SDS011;10359;53.596;22.520;2023-07-22T06:19:08;12.70;;;11.00;;
20399;SDS011;10359;53.596;22.520;2023-07-22T06:25:48;12.83;;;10.40;;
20399;SDS011;10359;53.596;22.520;2023-07-22T06:32:29;11.07;;;10.00;;
20399;SDS011;10359;53.596;22.520;2023-07-22T06:39:22;13.53;;;10.63;;
20399;SDS011;10359;53.596;22.520;2023-07-22T06:46:20;17.00;;;9.70;;
20399;SDS011;10359;53.596;22.520;2023-07-22T06:53:07;12.17;;;10.87;;
20399;SDS011;10359;53.596;22.520;2023-07-22T06:59:50;9.27;;;8.37;;
20399;SDS011;10359;53.596;22.520;2023-07-22T07:06:16;9.23;;;8.23;;
20399;SDS011;10359;53.596;22.520;2023-07-22T07:12:56;7.60;;;6.90;;
20399;SDS011;10359;53.596;22.520;2023-07-22T07:19:44;7.67;;;6.87;;
20399;SDS011;10359;53.596;22.520;2023-07-22T07:26:23;7.43;;;6.73;;
20399;SDS011;10359;53.596;22.520;2023-07-22T07:33:06;7.80;;;7.10;;
20399;SDS011;10359;53.596;22.520;2023-07-22T07:43:38;7.73;;;7.03;;
20399;SDS011;10359;53.596;22.520;2023-07-22T07:50:35;8.90;;;7.03;;
20399;SDS011;10359;53.596;22.520;2023-07-22T07:57:32;7.67;;;6.93;;
20399;SDS011;10359;53.596;22.520;2023-07-22T08:00:36;8.67;;;7.70;;
20399;SDS011;10359;53.596;22.520;2023-07-22T08:03:39;7.33;;;6.50;;
20399;SDS011;10359;53.596;22.520;2023-07-22T08:10:20;10.20;;;7.70;;
20399;SDS011;10359;53.596;22.520;2023-07-22T08:17:02;8.50;;;7.70;;
20399;SDS011;10359;53.596;22.520;2023-07-22T08:30:28;8.90;;;7.60;;
20399;SDS011;10359;53.596;22.520;2023-07-22T08:37:16;8.60;;;7.77;;
20399;SDS011;10359;53.596;22.520;2023-07-22T08:44:07;8.77;;;7.20;;
20399;SDS011;10359;53.596;22.520;2023-07-22T08:51:02;7.00;;;6.40;;
20399;SDS011;10359;53.596;22.520;2023-07-22T08:57:56;7.20;;;6.50;;
20399;SDS011;10359;53.596;22.520;2023-07-22T09:04:48;7.00;;;6.40;;
20399;SDS011;10359;53.596;22.520;2023-07-22T09:11:39;6.07;;;5.57;;
20399;SDS011;10359;53.596;22.520;2023-07-22T09:18:14;5.80;;;5.30;;
20399;SDS011;10359;53.596;22.520;2023-07-22T09:25:15;5.70;;;5.20;;
20399;SDS011;10359;53.596;22.520;2023-07-22T09:32:07;4.83;;;4.50;;
20399;SDS011;10359;53.596;22.520;2023-07-22T09:38:45;4.80;;;4.40;;
20399;SDS011;10359;53.596;22.520;2023-07-22T09:45:47;4.60;;;4.20;;
20399;SDS011;10359;53.596;22.520;2023-07-22T09:52:21;4.00;;;3.70;;
20399;SDS011;10359;53.596;22.520;2023-07-22T09:59:14;4.43;;;4.03;;
20399;SDS011;10359;53.596;22.520;2023-07-22T10:02:13;4.25;;;3.85;;
20399;SDS011;10359;53.596;22.520;2023-07-22T10:09:07;3.70;;;3.33;;
20399;SDS011;10359;53.596;22.520;2023-07-22T10:15:45;2.97;;;2.77;;
20399;SDS011;10359;53.596;22.520;2023-07-22T10:22:36;3.90;;;3.17;;
20399;SDS011;10359;53.596;22.520;2023-07-22T10:33:32;3.70;;;3.40;;
20399;SDS011;10359;53.596;22.520;2023-07-22T10:40:25;3.20;;;3.00;;
20399;SDS011;10359;53.596;22.520;2023-07-22T10:47:29;3.63;;;3.33;;
20399;SDS011;10359;53.596;22.520;2023-07-22T10:54:33;3.77;;;3.47;;
20399;SDS011;10359;53.596;22.520;2023-07-22T11:01:30;3.57;;;3.20;;
20399;SDS011;10359;53.596;22.520;2023-07-22T11:08:36;3.77;;;3.40;;
20399;SDS011;10359;53.596;22.520;2023-07-22T11:15:12;3.83;;;3.50;;
20399;SDS011;10359;53.596;22.520;2023-07-22T11:22:06;4.33;;;4.03;;
20399;SDS011;10359;53.596;22.520;2023-07-22T11:28:57;4.90;;;4.10;;
20399;SDS011;10359;53.596;22.520;2023-07-22T11:35:35;4.17;;;3.80;;
20399;SDS011;10359;53.596;22.520;2023-07-22T11:42:09;4.60;;;4.20;;
20399;SDS011;10359;53.596;22.520;2023-07-22T11:48:49;4.60;;;4.20;;
20399;SDS011;10359;53.596;22.520;2023-07-22T11:55:41;4.50;;;3.93;;
20399;SDS011;10359;53.596;22.520;2023-07-22T12:02:35;3.60;;;2.90;;
20399;SDS011;10359;53.596;22.520;2023-07-22T12:09:26;3.27;;;2.70;;
20399;SDS011;10359;53.596;22.520;2023-07-22T12:16:01;3.40;;;2.60;;
20399;SDS011;10359;53.596;22.520;2023-07-22T12:22:36;2.90;;;2.70;;
20399;SDS011;10359;53.596;22.520;2023-07-22T12:29:26;2.57;;;2.37;;
20399;SDS011;10359;53.596;22.520;2023-07-22T12:36:01;3.87;;;2.53;;
20399;SDS011;10359;53.596;22.520;2023-07-22T12:42:36;2.85;;;2.65;;
20399;SDS011;10359;53.596;22.520;2023-07-22T12:49:26;3.13;;;2.45;;
20399;SDS011;10359;53.596;22.520;2023-07-22T12:56:18;2.13;;;2.03;;
20399;SDS011;10359;53.596;22.520;2023-07-22T13:03:09;2.58;;;2.38;;
20399;SDS011;10359;53.596;22.520;2023-07-22T13:13:36;3.28;;;2.20;;
20399;SDS011;10359;53.596;22.520;2023-07-22T13:20:26;3.45;;;2.53;;
20399;SDS011;10359;53.596;22.520;2023-07-22T13:27:00;3.67;;;2.38;;
20399;SDS011;10359;53.596;22.520;2023-07-22T13:33:52;2.50;;;2.30;;
20399;SDS011;10359;53.596;22.520;2023-07-22T13:40:43;2.67;;;1.77;;
20399;SDS011;10359;53.596;22.520;2023-07-22T13:47:33;2.60;;;2.10;;
20399;SDS011;10359;53.596;22.520;2023-07-22T13:54:25;4.25;;;2.10;;
20399;SDS011;10359;53.596;22.520;2023-07-22T14:01:16;5.03;;;2.20;;
20399;SDS011;10359;53.596;22.520;2023-07-22T14:08:07;4.20;;;2.00;;
20399;SDS011;10359;53.596;22.520;2023-07-22T14:15:00;3.00;;;2.08;;
20399;SDS011;10359;53.596;22.520;2023-07-22T14:21:52;2.55;;;1.80;;
20399;SDS011;10359;53.596;22.520;2023-07-22T14:32:48;2.05;;;1.85;;
20399;SDS011;10359;53.596;22.520;2023-07-22T14:39:40;1.83;;;1.73;;
20399;SDS011;10359;53.596;22.520;2023-07-22T14:46:30;1.92;;;1.73;;
20399;SDS011;10359;53.596;22.520;2023-07-22T14:53:23;3.15;;;2.10;;
20399;SDS011;10359;53.596;22.520;2023-07-22T15:00:15;6.00;;;3.17;;
20399;SDS011;10359;53.596;22.520;2023-07-22T15:07:07;3.57;;;2.40;;
20399;SDS011;10359;53.596;22.520;2023-07-22T15:13:59;5.50;;;4.33;;
20399;SDS011;10359;53.596;22.520;2023-07-22T15:20:50;5.97;;;5.23;;
20399;SDS011;10359;53.596;22.520;2023-07-22T15:27:40;4.50;;;4.10;;
20399;SDS011;10359;53.596;22.520;2023-07-22T15:34:33;6.53;;;4.60;;
20399;SDS011;10359;53.596;22.520;2023-07-22T15:41:24;6.07;;;5.50;;
20399;SDS011;10359;53.596;22.520;2023-07-22T15:48:15;6.13;;;5.63;;
20399;SDS011;10359;53.596;22.520;2023-07-22T15:55:07;3.50;;;2.77;;
20399;SDS011;10359;53.596;22.520;2023-07-22T16:01:41;2.50;;;1.97;;
20399;SDS011;10359;53.596;22.520;2023-07-22T16:11:37;2.03;;;1.80;;
20399;SDS011;10359;53.596;22.520;2023-07-22T16:17:49;1.80;;;1.70;;
20399;SDS011;10359;53.596;22.520;2023-07-22T16:24:40;1.83;;;1.50;;
20399;SDS011;10359;53.596;22.520;2023-07-22T16:31:15;1.90;;;1.80;;
20399;SDS011;10359;53.596;22.520;2023-07-22T16:38:06;2.83;;;1.60;;
20399;SDS011;10359;53.596;22.520;2023-07-22T16:44:39;2.00;;;1.70;;
20399;SDS011;10359;53.596;22.520;2023-07-22T16:51:14;2.00;;;1.80;;
20399;SDS011;10359;53.596;22.520;2023-07-22T16:58:05;1.60;;;1.50;;
20399;SDS011;10359;53.596;22.520;2023-07-22T17:04:56;1.80;;;1.70;;
20399;SDS011;10359;53.596;22.520;2023-07-22T17:11:49;3.30;;;1.80;;
20399;SDS011;10359;53.596;22.520;2023-07-22T17:18:40;2.10;;;1.77;;
20399;SDS011;10359;53.596;22.520;2023-07-22T17:29:16;2.57;;;1.87;;
20399;SDS011;10359;53.596;22.520;2023-07-22T17:36:08;4.97;;;1.87;;
20399;SDS011;10359;53.596;22.520;2023-07-22T17:39:07;2.33;;;2.13;;
20399;SDS011;10359;53.596;22.520;2023-07-22T17:45:59;1.90;;;1.80;;
20399;SDS011;10359;53.596;22.520;2023-07-22T17:52:52;2.13;;;2.03;;
20399;SDS011;10359;53.596;22.520;2023-07-22T18:02:49;2.60;;;2.40;;
20399;SDS011;10359;53.596;22.520;2023-07-22T18:09:43;2.20;;;2.00;;
20399;SDS011;10359;53.596;22.520;2023-07-22T18:16:34;2.20;;;2.00;;
20399;SDS011;10359;53.596;22.520;2023-07-22T18:23:27;2.67;;;2.10;;
20399;SDS011;10359;53.596;22.520;2023-07-22T18:30:02;2.50;;;2.30;;
20399;SDS011;10359;53.596;22.520;2023-07-22T18:36:35;2.67;;;2.47;;
20399;SDS011;10359;53.596;22.520;2023-07-22T18:43:29;2.60;;;2.40;;
20399;SDS011;10359;53.596;22.520;2023-07-22T18:50:20;2.40;;;2.20;;
20399;SDS011;10359;53.596;22.520;2023-07-22T18:57:14;2.53;;;2.33;;
20399;SDS011;10359;53.596;22.520;2023-07-22T19:03:50;2.23;;;2.03;;
20399;SDS011;10359;53.596;22.520;2023-07-22T19:10:29;2.83;;;2.57;;
20399;SDS011;10359;53.596;22.520;2023-07-22T19:17:01;30.83;;;17.73;;
20399;SDS011;10359;53.596;22.520;2023-07-22T19:23:57;2.27;;;2.07;;
20399;SDS011;10359;53.596;22.520;2023-07-22T19:30:36;2.73;;;1.77;;
20399;SDS011;10359;53.596;22.520;2023-07-22T19:37:29;2.23;;;1.70;;
20399;SDS011;10359;53.596;22.520;2023-07-22T19:44:23;3.23;;;2.30;;
20399;SDS011;10359;53.596;22.520;2023-07-22T19:51:14;4.90;;;2.57;;
20399;SDS011;10359;53.596;22.520;2023-07-22T19:58:06;4.23;;;2.40;;
20399;SDS011;10359;53.596;22.520;2023-07-22T20:05:02;3.27;;;2.00;;
20399;SDS011;10359;53.596;22.520;2023-07-22T20:11:55;4.03;;;2.20;;
20399;SDS011;10359;53.596;22.520;2023-07-22T20:18:49;2.10;;;1.77;;
20399;SDS011;10359;53.596;22.520;2023-07-22T20:25:41;2.80;;;2.33;;
20399;SDS011;10359;53.596;22.520;2023-07-22T20:32:35;2.57;;;1.97;;
20399;SDS011;10359;53.596;22.520;2023-07-22T20:39:10;3.53;;;2.70;;
20399;SDS011;10359;53.596;22.520;2023-07-22T20:46:06;4.73;;;2.20;;
20399;SDS011;10359;53.596;22.520;2023-07-22T20:52:59;2.50;;;2.30;;
20399;SDS011;10359;53.596;22.520;2023-07-22T20:59:54;5.67;;;2.60;;
20399;SDS011;10359;53.596;22.520;2023-07-22T21:06:49;5.03;;;2.73;;
20399;SDS011;10359;53.596;22.520;2023-07-22T21:20:00;4.63;;;3.20;;
20399;SDS011;10359;53.596;22.520;2023-07-22T21:26:34;4.03;;;2.90;;
20399;SDS011;10359;53.596;22.520;2023-07-22T21:33:27;7.53;;;5.13;;
20399;SDS011;10359;53.596;22.520;2023-07-22T21:40:19;5.03;;;3.47;;
20399;SDS011;10359;53.596;22.520;2023-07-22T21:47:11;3.97;;;3.23;;
20399;SDS011;10359;53.596;22.520;2023-07-22T21:54:02;5.07;;;3.83;;
20399;SDS011;10359;53.596;22.520;2023-07-22T22:00:53;8.63;;;4.90;;
20399;SDS011;10359;53.596;22.520;2023-07-22T22:07:28;5.57;;;4.60;;
20399;SDS011;10359;53.596;22.520;2023-07-22T22:14:02;25.73;;;12.27;;
20399;SDS011;10359;53.596;22.520;2023-07-22T22:20:53;3.37;;;2.90;;
20399;SDS011;10359;53.596;22.520;2023-07-22T22:27:29;21.07;;;10.20;;
20399;SDS011;10359;53.596;22.520;2023-07-22T22:34:19;4.87;;;2.40;;
20399;SDS011;10359;53.596;22.520;2023-07-22T22:40:52;2.87;;;2.60;;
20399;SDS011;10359;53.596;22.520;2023-07-22T22:47:45;5.23;;;3.70;;
20399;SDS011;10359;53.596;22.520;2023-07-22T22:54:36;4.20;;;2.63;;
20399;SDS011;10359;53.596;22.520;2023-07-22T23:01:27;4.13;;;2.90;;
20399;SDS011;10359;53.596;22.520;2023-07-22T23:08:20;3.47;;;2.53;;
20399;SDS011;10359;53.596;22.520;2023-07-22T23:15:10;3.00;;;2.70;;
20399;SDS011;10359;53.596;22.520;2023-07-22T23:22:02;4.37;;;2.80;;
20399;SDS011;10359;53.596;22.520;2023-07-22T23:28:55;5.30;;;2.97;;
20399;SDS011;10359;53.596;22.520;2023-07-22T23:35:50;4.00;;;2.80;;
20399;SDS011;10359;53.596;22.520;2023-07-22T23:46:27;3.90;;;3.33;;
20399;SDS011;10359;53.596;22.520;2023-07-22T23:52:38;4.77;;;3.30;;
20399;SDS011;10359;53.596;22.520;2023-07-22T23:59:29;3.43;;;3.00;;
